CheckWX is a tool to help pilots better visualize weather data.  It is not intended as a substitute for an official pre-flight weather briefing.

00:42:51 UTC

GMMX METAR
Menara Airport
Marrakech, Morocco
Current

43 mins ago

GMMX 170000Z 03004KT 9999 FEW100 25/14 Q1016 NOSIG
Observed
Jul-17 @ 00:00 UTC
Wind
  • 030° at 4 KTS
Visibility
10,000+ meters
Flight Rules
VFR
Cloud Levels
  • Few at 10,000' AGL
Temperature
25°C / 77°F
Dewpoint
14°C / 57°F
Humidity
51%
Altimeter
30" Hg
Pressure
1015.92 hPa
Previous

1 hour ago

GMMX 162330Z 02003KT 9999 FEW100 25/14 Q1016 NOSIG
Observed
Jul-16 @ 23:30 UTC
Wind
  • 020° at 3 KTS
Visibility
10,000+ meters
Flight Rules
VFR
Cloud Levels
  • Few at 10,000' AGL
Temperature
25°C / 77°F
Dewpoint
14°C / 57°F
Humidity
51%
Altimeter
30" Hg
Pressure
1015.92 hPa
Previous

2 hours ago

GMMX 162300Z 01003KT 9999 FEW100 26/14 Q1017 NOSIG
Observed
Jul-16 @ 23:00 UTC
Wind
  • 010° at 3 KTS
Visibility
10,000+ meters
Flight Rules
VFR
Cloud Levels
  • Few at 10,000' AGL
Temperature
26°C / 79°F
Dewpoint
14°C / 57°F
Humidity
48%
Altimeter
30.03" Hg
Pressure
1016.92 hPa